createdAt,value
2018-07-24T00:00:20.531Z,20.61
2018-07-24T00:01:05.884Z,20.54
2018-07-24T00:02:05.649Z,20.57
2018-07-24T00:04:05.957Z,20.5
2018-07-24T00:05:05.982Z,20.48
2018-07-24T00:06:06.009Z,20.43
2018-07-24T00:07:06.039Z,20.41
2018-07-24T00:08:06.056Z,20.38
2018-07-24T00:09:06.080Z,20.39
2018-07-24T00:10:20.514Z,20.38
2018-07-24T00:11:06.119Z,20.36
2018-07-24T00:12:06.159Z,20.38
2018-07-24T00:13:06.182Z,20.31
2018-07-24T00:14:05.949Z,20.24
2018-07-24T00:15:05.974Z,20.29
2018-07-24T00:16:20.920Z,20.18
2018-07-24T00:18:06.310Z,20.16
2018-07-24T00:20:06.364Z,19.94
2018-07-24T00:21:06.384Z,20.03
2018-07-24T00:22:06.407Z,19.98
2018-07-24T00:23:06.432Z,19.96
2018-07-24T00:24:06.202Z,20.01
2018-07-24T00:25:21.144Z,20.05
2018-07-24T00:26:06.252Z,20.01
2018-07-24T00:27:06.530Z,20.02
2018-07-24T00:28:06.297Z,20.11
2018-07-24T00:29:06.583Z,20.13
2018-07-24T00:30:06.346Z,20.03
2018-07-24T00:31:06.625Z,20.02
2018-07-24T00:32:21.316Z,19.91
2018-07-24T00:33:06.163Z,19.92
2018-07-24T00:34:06.713Z,19.76
2018-07-24T00:35:06.734Z,19.76
2018-07-24T00:36:06.493Z,19.71
2018-07-24T00:37:06.520Z,19.73
2018-07-24T00:38:06.545Z,19.74
2018-07-24T00:39:21.492Z,19.58
2018-07-24T00:40:06.854Z,19.71
2018-07-24T00:41:06.889Z,19.59
2018-07-24T00:42:06.899Z,19.59
2018-07-24T00:43:06.937Z,19.65
2018-07-24T00:44:06.950Z,19.58
2018-07-24T00:45:06.716Z,19.62
2018-07-24T00:46:06.744Z,19.59
2018-07-24T00:47:21.690Z,19.48
2018-07-24T00:48:06.797Z,19.47
2018-07-24T00:49:06.815Z,19.39
2018-07-24T00:50:06.584Z,19.37
2018-07-24T00:51:07.127Z,19.36
2018-07-24T00:52:06.890Z,19.37
2018-07-24T00:53:07.173Z,19.36
2018-07-24T00:54:07.265Z,19.37
2018-07-24T00:55:06.972Z,19.39
2018-07-24T00:56:21.916Z,19.32
2018-07-24T00:57:06.755Z,19.39
2018-07-24T00:58:07.294Z,19.29
2018-07-24T00:59:07.325Z,19.4
2018-07-24T01:00:07.343Z,19.37
2018-07-24T01:01:06.853Z,19.37
2018-07-24T01:02:07.394Z,19.47
2018-07-24T01:03:07.419Z,19.47
2018-07-24T01:04:07.440Z,19.4
2018-07-24T01:05:07.212Z,19.4
2018-07-24T01:06:07.234Z,19.48
2018-07-24T01:08:07.282Z,19.41
2018-07-24T01:09:07.313Z,19.43
2018-07-24T01:10:07.333Z,19.46
2018-07-24T01:12:07.646Z,19.36
2018-07-24T01:13:07.670Z,19.25
2018-07-24T01:14:22.351Z,19.28
2018-07-24T01:15:07.722Z,19.26
2018-07-24T01:16:07.741Z,19.32
2018-07-24T01:17:07.508Z,19.4
2018-07-24T01:18:07.793Z,19.4
2018-07-24T01:19:22.473Z,19.4
2018-07-24T01:20:07.577Z,19.39
2018-07-24T01:21:07.603Z,19.31
2018-07-24T01:22:07.884Z,19.16
2018-07-24T01:23:07.924Z,19.04
2018-07-24T01:24:07.681Z,19
2018-07-24T01:25:07.959Z,18.88
2018-07-24T01:26:07.730Z,18.84
2018-07-24T01:27:08.006Z,18.94
2018-07-24T01:28:08.035Z,18.88
2018-07-24T01:29:08.059Z,18.88
2018-07-24T01:30:22.486Z,18.82
2018-07-24T01:31:08.104Z,18.87
2018-07-24T01:32:08.145Z,18.87
2018-07-24T01:33:07.898Z,18.88
2018-07-24T01:34:08.184Z,18.84
2018-07-24T01:35:22.611Z,18.91
2018-07-24T01:36:07.972Z,19
2018-07-24T01:37:07.998Z,18.95
2018-07-24T01:38:08.277Z,18.99
2018-07-24T01:39:08.311Z,19.14
2018-07-24T01:40:08.172Z,19.16
2018-07-24T01:41:08.100Z,19.1
2018-07-24T01:42:08.427Z,19.16
2018-07-24T01:43:23.064Z,19.08
2018-07-24T01:44:08.168Z,19.06
2018-07-24T01:45:08.453Z,19
2018-07-24T01:46:08.223Z,19.07
2018-07-24T01:47:07.985Z,19.04
2018-07-24T01:48:08.524Z,18.91
2018-07-24T01:49:08.551Z,18.78
2018-07-24T01:50:08.575Z,18.73
2018-07-24T01:51:23.258Z,18.75
2018-07-24T01:52:08.364Z,18.7
2018-07-24T01:53:08.650Z,18.66
2018-07-24T01:54:08.413Z,18.67
2018-07-24T01:55:08.693Z,18.72
2018-07-24T01:56:08.505Z,18.69
2018-07-24T01:57:23.408Z,18.62
2018-07-24T01:58:08.509Z,18.69
2018-07-24T01:59:08.545Z,18.69
2018-07-24T02:00:08.558Z,18.75
2018-07-24T02:01:08.845Z,18.69
2018-07-24T02:02:08.617Z,18.67
2018-07-24T02:03:08.888Z,18.67
2018-07-24T02:04:08.963Z,18.82
2018-07-24T02:05:08.940Z,18.8
2018-07-24T02:06:08.707Z,18.81
2018-07-24T02:07:23.649Z,18.8
2018-07-24T02:08:08.753Z,18.76
2018-07-24T02:09:08.781Z,18.75
2018-07-24T02:10:08.804Z,18.78
2018-07-24T02:11:08.827Z,18.8
2018-07-24T02:12:09.114Z,18.8
2018-07-24T02:13:08.876Z,18.75
2018-07-24T02:14:08.905Z,18.7
2018-07-24T02:15:09.179Z,18.78
2018-07-24T02:16:08.989Z,18.72
2018-07-24T02:17:23.892Z,18.69
2018-07-24T02:18:09.258Z,18.65
2018-07-24T02:19:09.281Z,18.73
2018-07-24T02:20:09.314Z,18.73
2018-07-24T02:21:09.330Z,18.7
2018-07-24T02:22:24.018Z,18.69
2018-07-24T02:23:09.381Z,18.72
2018-07-24T02:24:09.404Z,18.67
2018-07-24T02:25:09.167Z,18.7
2018-07-24T02:26:09.453Z,18.73
2018-07-24T02:27:09.217Z,18.62
2018-07-24T02:28:09.241Z,18.73
2018-07-24T02:29:09.522Z,18.7
2018-07-24T02:30:09.292Z,18.65
2018-07-24T02:31:09.577Z,18.52
2018-07-24T02:32:24.260Z,18.5
2018-07-24T02:33:09.626Z,18.44
2018-07-24T02:34:09.658Z,18.48
2018-07-24T02:35:09.423Z,18.5
2018-07-24T02:36:09.695Z,18.55
2018-07-24T02:37:09.879Z,18.48
2018-07-24T02:38:09.485Z,18.36
2018-07-24T02:40:09.533Z,18.5
2018-07-24T02:41:24.483Z,18.36
2018-07-24T02:42:09.844Z,18.51
2018-07-24T02:43:09.863Z,18.39
2018-07-24T02:44:09.887Z,18.39
2018-07-24T02:45:09.925Z,18.45
2018-07-24T02:46:09.948Z,18.35
2018-07-24T02:47:09.963Z,18.39
2018-07-24T02:48:09.729Z,18.29
2018-07-24T02:49:10.024Z,18.37
2018-07-24T02:50:10.035Z,18.3
2018-07-24T02:51:10.063Z,18.25
2018-07-24T02:52:09.825Z,18.17
2018-07-24T02:53:09.852Z,18.26
2018-07-24T02:56:09.919Z,18.08
2018-07-24T02:57:10.243Z,18.14
2018-07-24T02:58:09.973Z,18.3
2018-07-24T02:59:09.998Z,18.23
2018-07-24T03:00:10.021Z,18.25
2018-07-24T03:01:10.044Z,18.18
2018-07-24T03:02:10.068Z,18.11
2018-07-24T03:03:10.361Z,18.11
2018-07-24T03:04:10.116Z,18.14
2018-07-24T03:05:10.421Z,18.07
2018-07-24T03:06:10.440Z,18.26
2018-07-24T03:07:09.930Z,18.21
2018-07-24T03:08:10.473Z,18.26
2018-07-24T03:09:10.241Z,18.27
2018-07-24T03:10:25.181Z,18.18
2018-07-24T03:11:10.281Z,18.11
2018-07-24T03:12:10.570Z,18.1
2018-07-24T03:13:10.334Z,18.11
2018-07-24T03:14:10.612Z,18.26
2018-07-24T03:15:10.389Z,18.18
2018-07-24T03:16:10.484Z,18.27
2018-07-24T03:17:10.688Z,18.27
2018-07-24T03:18:10.713Z,18.12
2018-07-24T03:19:10.833Z,18.12
2018-07-24T03:20:10.762Z,18.08
2018-07-24T03:21:10.796Z,18.26
2018-07-24T03:22:10.816Z,18.21
2018-07-24T03:23:10.831Z,18.26
2018-07-24T03:24:10.596Z,18.23
2018-07-24T03:25:10.894Z,18.3
2018-07-24T03:26:25.305Z,18.29
2018-07-24T03:27:10.669Z,18.26
2018-07-24T03:30:10.746Z,18.41
2018-07-24T03:31:11.033Z,18.39
2018-07-24T03:32:11.117Z,18.41
2018-07-24T03:33:11.070Z,18.36
2018-07-24T03:34:11.096Z,18.36
2018-07-24T03:35:25.780Z,18.37
2018-07-24T03:36:25.803Z,18.47
2018-07-24T03:37:11.175Z,18.36
2018-07-24T03:38:11.191Z,18.45
2018-07-24T03:39:11.211Z,18.5
2018-07-24T03:40:11.245Z,18.39
2018-07-24T03:41:11.008Z,18.52
2018-07-24T03:42:25.949Z,18.54
2018-07-24T03:43:11.316Z,18.57
2018-07-24T03:44:11.338Z,18.54
2018-07-24T03:45:11.622Z,18.66
2018-07-24T03:46:11.483Z,18.62
2018-07-24T03:47:11.417Z,18.67
2018-07-24T03:48:11.439Z,18.55
2018-07-24T03:49:11.454Z,18.67
2018-07-24T03:50:11.481Z,18.67
2018-07-24T03:51:26.165Z,18.73
2018-07-24T03:52:11.528Z,18.73
2018-07-24T03:53:11.548Z,18.81
2018-07-24T03:54:11.319Z,18.78
2018-07-24T03:55:11.601Z,18.82
2018-07-24T03:56:11.367Z,18.8
2018-07-24T03:57:26.311Z,18.88
2018-07-24T03:58:11.675Z,18.91
2018-07-24T03:59:11.441Z,18.87
2018-07-24T04:00:11.722Z,18.82
2018-07-24T04:01:11.748Z,18.75
2018-07-24T04:02:11.529Z,18.85
2018-07-24T04:03:11.807Z,18.9
2018-07-24T04:04:11.830Z,18.9
2018-07-24T04:05:11.845Z,18.99
2018-07-24T04:06:11.869Z,19.14
2018-07-24T04:07:11.898Z,19.11
2018-07-24T04:08:11.661Z,19.13
2018-07-24T04:09:11.941Z,19.19
2018-07-24T04:10:11.969Z,19.19
2018-07-24T04:11:11.992Z,19.23
2018-07-24T04:12:12.018Z,19.19
2018-07-24T04:13:12.040Z,19.22
2018-07-24T04:14:12.063Z,19.26
2018-07-24T04:15:11.827Z,19.25
2018-07-24T04:16:12.110Z,19.28
2018-07-24T04:17:12.133Z,19.28
2018-07-24T04:18:12.157Z,19.29
2018-07-24T04:19:12.217Z,19.29
2018-07-24T04:20:26.870Z,19.28
2018-07-24T04:22:26.917Z,19.56
2018-07-24T04:23:12.280Z,19.58
2018-07-24T04:24:12.301Z,19.68
2018-07-24T04:25:12.328Z,19.73
2018-07-24T04:27:12.122Z,19.78
2018-07-24T04:28:12.145Z,19.8
2018-07-24T04:29:26.828Z,19.74
2018-07-24T04:30:12.451Z,19.76
2018-07-24T04:31:12.691Z,19.81
2018-07-24T04:32:12.502Z,19.95
2018-07-24T04:33:12.533Z,19.96
2018-07-24T04:34:12.550Z,19.98
2018-07-24T04:35:12.577Z,19.99
2018-07-24T04:36:12.700Z,20.02
2018-07-24T04:37:12.623Z,20.05
2018-07-24T04:38:12.388Z,20.14
2018-07-24T04:39:12.669Z,20.13
2018-07-24T04:40:12.554Z,20.23
2018-07-24T04:41:12.462Z,20.13
2018-07-24T04:42:12.745Z,20.2
2018-07-24T04:43:12.613Z,20.21
2018-07-24T04:44:12.792Z,20.26
2018-07-24T04:45:27.482Z,20.28
2018-07-24T04:46:12.839Z,20.41
2018-07-24T04:47:12.870Z,20.39
2018-07-24T04:48:12.895Z,20.35
2018-07-24T04:49:12.921Z,20.39
2018-07-24T04:50:12.940Z,20.57
2018-07-24T04:51:27.628Z,21.22
2018-07-24T04:52:12.733Z,21.82
2018-07-24T04:53:13.017Z,22.92
2018-07-24T04:54:27.701Z,24.09
2018-07-24T04:55:27.725Z,24.99
2018-07-24T04:56:13.093Z,25.54
2018-07-24T04:57:27.776Z,26.43
2018-07-24T04:58:13.147Z,26.89
2018-07-24T04:59:12.909Z,27.32
2018-07-24T05:00:12.936Z,27.67
2018-07-24T05:01:27.883Z,28.21
2018-07-24T05:02:12.732Z,28.66
2018-07-24T05:03:13.142Z,28.98
2018-07-24T05:04:13.320Z,29.23
2018-07-24T05:05:13.345Z,29.6
2018-07-24T05:06:13.361Z,29.74
2018-07-24T05:07:28.062Z,30.01
2018-07-24T05:08:13.163Z,30.24
2018-07-24T05:09:28.121Z,30.92
2018-07-24T05:10:13.512Z,31.14
2018-07-24T05:11:28.174Z,31.75
2018-07-24T05:12:13.542Z,31.93
2018-07-24T05:13:13.626Z,32.01
2018-07-24T05:15:13.383Z,32.19
2018-07-24T05:16:13.413Z,32.66
2018-07-24T05:17:28.364Z,32.77
2018-07-24T05:18:13.216Z,32.93
2018-07-24T05:19:13.508Z,32.96
2018-07-24T05:20:13.802Z,33.29
2018-07-24T05:21:13.833Z,33.19
2018-07-24T05:22:13.864Z,33.15
2018-07-24T05:23:13.644Z,33.54
2018-07-24T05:24:13.933Z,33.44
2018-07-24T05:25:13.961Z,33.72
2018-07-24T05:26:13.999Z,33.91
2018-07-24T05:29:13.840Z,34.17
2018-07-24T05:30:13.876Z,34.65
2018-07-24T05:31:14.181Z,34.72
2018-07-24T05:32:28.866Z,34.89
2018-07-24T05:33:14.398Z,35.26
2018-07-24T05:35:14.049Z,35.82
2018-07-24T05:36:14.348Z,35.85
2018-07-24T05:37:14.391Z,35.7
2018-07-24T05:38:28.823Z,36.59
2018-07-24T05:39:14.451Z,36.88
2018-07-24T05:40:14.485Z,36.47
2018-07-24T05:41:14.617Z,36.39
2018-07-24T05:42:14.555Z,36.6
2018-07-24T05:43:14.591Z,36.64
2018-07-24T05:44:14.626Z,36.9
2018-07-24T05:45:14.665Z,36.95
2018-07-24T05:46:14.696Z,37.02
2018-07-24T05:48:14.788Z,37.78
2018-07-24T05:49:14.805Z,37.63
2018-07-24T05:50:14.844Z,37.96
2018-07-24T05:51:14.886Z,38.4
2018-07-24T05:52:14.919Z,38.23
2018-07-24T05:53:15.050Z,37.78
2018-07-24T05:54:14.986Z,37.96
2018-07-24T05:55:14.995Z,38.66
2018-07-24T05:56:14.803Z,38.32
2018-07-24T05:57:15.201Z,38.06
2018-07-24T05:58:15.138Z,37.66
2018-07-24T05:59:15.172Z,37.49
2018-07-24T06:00:15.215Z,37.75
2018-07-24T06:01:14.988Z,37.69
2018-07-24T06:02:15.287Z,38.28
2018-07-24T06:03:15.320Z,38.16
2018-07-24T06:04:29.767Z,38.11
2018-07-24T06:05:15.406Z,38.22
2018-07-24T06:06:15.443Z,38.37
2018-07-24T06:07:15.552Z,38.37
2018-07-24T06:08:15.255Z,38.37
2018-07-24T06:09:15.561Z,38.69
2018-07-24T06:10:15.329Z,38.37
2018-07-24T06:11:15.631Z,37.62
2018-07-24T06:12:15.407Z,36.94
2018-07-24T06:13:30.379Z,36.71
2018-07-24T06:14:15.929Z,36.85
2018-07-24T06:15:15.774Z,36.88
2018-07-24T06:16:15.810Z,36.51
2018-07-24T06:17:15.863Z,36.98
2018-07-24T06:18:15.890Z,37.18
2018-07-24T06:20:30.631Z,37.86
2018-07-24T06:21:16.003Z,38.04
2018-07-24T06:22:16.053Z,38.41
2018-07-24T06:23:15.828Z,38.12
2018-07-24T06:24:16.121Z,38.09
2018-07-24T06:25:15.903Z,37.91
2018-07-24T06:26:16.204Z,37.66
2018-07-24T06:27:15.974Z,37.67
2018-07-24T06:28:30.941Z,38.3
2018-07-24T06:29:16.116Z,38.79
2018-07-24T06:30:16.353Z,38.12
2018-07-24T06:31:30.853Z,38.68
2018-07-24T06:32:16.430Z,38.79
2018-07-24T06:33:16.476Z,39.09
2018-07-24T06:34:16.507Z,38.35
2018-07-24T06:35:16.552Z,38.4
2018-07-24T06:36:31.250Z,38.99
2018-07-24T06:37:16.367Z,39.52
2018-07-24T06:39:16.706Z,39.17
2018-07-24T06:40:16.743Z,39.21
2018-07-24T06:41:16.780Z,39.21
2018-07-24T06:42:16.822Z,39.23
2018-07-24T06:43:16.870Z,39.21
2018-07-24T06:44:16.689Z,39.1
2018-07-24T06:45:16.684Z,39.26
2018-07-24T06:46:16.979Z,39.54
2018-07-24T06:47:16.761Z,39.82
2018-07-24T06:48:17.060Z,39.7
2018-07-24T06:49:17.093Z,39.72
2018-07-24T06:50:17.132Z,39.67
2018-07-24T06:51:17.129Z,39.96
2018-07-24T06:52:31.879Z,38.46
2018-07-24T06:53:16.997Z,37.98
2018-07-24T06:54:17.295Z,38.03
2018-07-24T06:55:17.441Z,38.38
2018-07-24T06:56:17.379Z,38.65
2018-07-24T06:57:17.158Z,38.16
2018-07-24T06:58:32.121Z,38.65
2018-07-24T06:59:17.493Z,39.25
2018-07-24T07:00:17.536Z,39.28
2018-07-24T07:01:17.570Z,39.72
2018-07-24T07:02:18.016Z,39.97
2018-07-24T07:03:17.437Z,39.17
2018-07-24T07:06:17.773Z,38.93
2018-07-24T07:08:17.856Z,39.32
2018-07-24T07:09:17.888Z,39.44
2018-07-24T07:10:18.140Z,38.88
2018-07-24T07:11:17.971Z,39.32
2018-07-24T07:13:17.929Z,39.09
2018-07-24T07:14:18.089Z,39.03
2018-07-24T07:15:32.796Z,39.32
2018-07-24T07:16:18.056Z,39.54
2018-07-24T07:17:17.953Z,39.23
2018-07-24T07:18:18.253Z,37.84
2018-07-24T07:19:18.288Z,37.46
2018-07-24T07:20:18.071Z,37.66
2018-07-24T07:21:18.394Z,37.36
2018-07-24T07:22:18.413Z,37.44
2018-07-24T07:23:18.260Z,38.18
2018-07-24T07:24:18.515Z,38.9
2018-07-24T07:25:18.272Z,38.35
2018-07-24T07:27:18.612Z,38.15
2018-07-24T07:28:18.412Z,38.42
2018-07-24T07:29:19.013Z,38.12
2018-07-24T07:30:18.736Z,38.18
2018-07-24T07:31:18.773Z,37.85
2018-07-24T07:32:19.040Z,38
2018-07-24T07:33:18.850Z,37.88
2018-07-24T07:34:18.895Z,38.84
2018-07-24T07:36:18.709Z,39.7
2018-07-24T07:38:19.045Z,40.23
2018-07-24T07:39:33.761Z,40.74
2018-07-24T07:40:19.128Z,40.89
2018-07-24T07:41:18.913Z,40.42
2018-07-24T07:42:18.957Z,40.04
2018-07-24T07:43:19.245Z,40.25
2018-07-24T07:44:19.293Z,39.96
2018-07-24T07:45:19.450Z,39.77
2018-07-24T07:46:19.366Z,40.34
2018-07-24T07:47:34.071Z,39.51
2018-07-24T07:48:19.451Z,39.41
2018-07-24T07:49:19.228Z,39.35
2018-07-24T07:50:19.264Z,39.7
2018-07-24T07:51:19.661Z,39.23
2018-07-24T07:52:19.633Z,38.19
2018-07-24T07:54:34.359Z,37.46
2018-07-24T07:55:34.131Z,38.09
2018-07-24T07:56:19.762Z,37.69
2018-07-24T07:57:19.544Z,37.81
2018-07-24T07:58:19.587Z,38.34
2018-07-24T08:00:19.921Z,38.86
2018-07-24T08:01:19.701Z,38.84
2018-07-24T08:02:20.041Z,38.75
2018-07-24T08:03:20.044Z,39.21
2018-07-24T08:04:20.282Z,39.47
2018-07-24T08:05:20.116Z,39.66
2018-07-24T08:06:20.154Z,39.81
2018-07-24T08:07:20.199Z,39.94
2018-07-24T08:08:20.233Z,40.58
2018-07-24T08:09:20.273Z,40.35
2018-07-24T08:10:20.316Z,40.62
2018-07-24T08:11:35.017Z,41.11
2018-07-24T08:12:20.428Z,40.92
2018-07-24T08:13:20.435Z,41.16
2018-07-24T08:14:20.597Z,41.26
2018-07-24T08:15:20.517Z,40.84
2018-07-24T08:16:20.556Z,40.51
2018-07-24T08:17:20.594Z,40.38
2018-07-24T08:18:20.629Z,40.32
2018-07-24T08:19:20.668Z,39.41
2018-07-24T08:21:35.160Z,38.46
2018-07-24T08:22:21.031Z,38.6
2018-07-24T08:23:20.571Z,38.22
2018-07-24T08:24:20.621Z,37.55
2018-07-24T08:25:20.651Z,37.15
2018-07-24T08:26:20.690Z,36.93
2018-07-24T08:27:35.650Z,36.05
2018-07-24T08:28:21.179Z,36.34
2018-07-24T08:29:20.809Z,36.32
2018-07-24T08:30:20.842Z,36.99
2018-07-24T08:31:21.146Z,37.17
2018-07-24T08:32:20.922Z,36.05
2018-07-24T08:33:20.969Z,35.93
2018-07-24T08:34:21.002Z,36.62
2018-07-24T08:35:35.962Z,37.46
2018-07-24T08:36:21.333Z,37.49
2018-07-24T08:37:21.117Z,37.28
2018-07-24T08:38:21.412Z,37.72
2018-07-24T08:39:21.448Z,37.97
2018-07-24T08:40:21.487Z,37.66
2018-07-24T08:41:21.529Z,36.91
2018-07-24T08:43:21.602Z,36.93
2018-07-24T08:44:21.638Z,37.28
2018-07-24T08:45:21.683Z,37.81
2018-07-24T08:47:21.498Z,38.35
2018-07-24T08:48:21.596Z,38.6
2018-07-24T08:49:21.889Z,38.6
2018-07-24T08:50:36.537Z,37.76
2018-07-24T08:51:21.649Z,37.21
2018-07-24T08:52:36.444Z,37.02
2018-07-24T08:53:22.561Z,37.09
2018-07-24T08:54:22.262Z,37.85
2018-07-24T08:55:23.548Z,38.18
2018-07-24T08:56:22.097Z,38.38
2018-07-24T08:57:22.134Z,39.07
2018-07-24T08:58:22.172Z,39.3
2018-07-24T08:59:22.222Z,39.96
2018-07-24T09:00:22.255Z,40.41
2018-07-24T09:01:22.032Z,40.55
2018-07-24T09:02:22.326Z,41.07
2018-07-24T09:03:22.546Z,40.53
2018-07-24T09:04:22.539Z,40.43
2018-07-24T09:05:22.442Z,40.03
2018-07-24T09:06:22.217Z,40.07
2018-07-24T09:07:22.514Z,39.45
2018-07-24T09:08:22.547Z,39.48
2018-07-24T09:10:22.555Z,39.73
2018-07-24T09:11:22.664Z,40.06
2018-07-24T09:12:22.701Z,40.53
2018-07-24T09:13:22.527Z,40.87
2018-07-24T09:14:37.442Z,40.77
2018-07-24T09:15:22.300Z,40.31
2018-07-24T09:16:22.858Z,39.98
2018-07-24T09:17:22.375Z,39.64
2018-07-24T09:20:23.005Z,39.38
2018-07-24T09:21:37.708Z,39.03
2018-07-24T09:22:23.083Z,38.66
2018-07-24T09:23:37.781Z,38.25
2018-07-24T09:24:23.150Z,38.41
2018-07-24T09:25:22.934Z,38.61
2018-07-24T09:26:22.714Z,39.03
2018-07-24T09:27:23.273Z,39.36
2018-07-24T09:28:23.306Z,39.1
2018-07-24T09:29:23.448Z,39.47
2018-07-24T09:30:38.046Z,39.44
2018-07-24T09:31:23.417Z,39.33
2018-07-24T09:33:23.496Z,38.87
2018-07-24T09:34:23.528Z,38.87
2018-07-24T09:35:23.561Z,38.65
2018-07-24T09:36:38.270Z,37.91
2018-07-24T09:37:23.640Z,37.91
2018-07-24T09:38:23.675Z,37
2018-07-24T09:39:23.455Z,37.59
2018-07-24T09:40:23.824Z,37.86
2018-07-24T09:41:23.534Z,37.21
2018-07-24T09:42:23.833Z,37.29
2018-07-24T09:43:23.865Z,37.57
2018-07-24T09:44:23.899Z,37.7
2018-07-24T09:45:23.937Z,37.69
2018-07-24T09:46:38.637Z,36.84
2018-07-24T09:47:24.014Z,36.6
2018-07-24T09:48:24.048Z,36.46
2018-07-24T09:49:23.824Z,36.34
2018-07-24T09:50:24.129Z,35.71
2018-07-24T09:51:24.164Z,35.1
2018-07-24T09:52:24.193Z,34.32
2018-07-24T09:53:24.228Z,33.88
2018-07-24T09:54:24.014Z,33.57
2018-07-24T09:55:24.295Z,33
2018-07-24T09:56:24.521Z,32.44
2018-07-24T09:57:39.033Z,32.15
2018-07-24T09:58:24.148Z,32.56
2018-07-24T09:59:24.759Z,33.56
2018-07-24T10:00:24.220Z,34.89
2018-07-24T10:01:24.001Z,35.77
2018-07-24T10:02:39.211Z,36.51
2018-07-24T10:03:24.325Z,36.49
2018-07-24T10:05:24.798Z,37.63
2018-07-24T10:06:24.701Z,37.89
2018-07-24T10:07:24.744Z,38.68
2018-07-24T10:08:24.755Z,39.04
2018-07-24T10:09:24.806Z,39.4
2018-07-24T10:10:39.492Z,39.16
2018-07-24T10:11:24.714Z,38.86
2018-07-24T10:12:24.908Z,39.06
2018-07-24T10:13:25.122Z,39.3
2018-07-24T10:14:24.966Z,38.78
2018-07-24T10:15:25.006Z,38.22
2018-07-24T10:16:25.080Z,38.11
2018-07-24T10:17:39.743Z,37.56
2018-07-24T10:18:25.115Z,37.1
2018-07-24T10:20:25.229Z,36.72
2018-07-24T10:21:25.219Z,36.57
2018-07-24T10:22:25.243Z,36.28
2018-07-24T10:23:25.027Z,36.13
2018-07-24T10:24:25.485Z,35.72
2018-07-24T10:25:25.356Z,34.7
2018-07-24T10:26:25.398Z,34.21
2018-07-24T10:27:25.170Z,34.19
2018-07-24T10:28:25.461Z,34
2018-07-24T10:29:25.263Z,33.66
2018-07-24T10:30:25.683Z,34.15
2018-07-24T10:31:25.309Z,34.72
2018-07-24T10:32:25.340Z,34.3
2018-07-24T10:34:25.667Z,34.22
2018-07-24T10:35:25.703Z,34.81
2018-07-24T10:36:25.878Z,34.99
2018-07-24T10:37:25.771Z,35.25
2018-07-24T10:38:25.805Z,35.63
2018-07-24T10:39:25.837Z,35.16
2018-07-24T10:40:25.614Z,35.03
2018-07-24T10:41:25.909Z,35.06
2018-07-24T10:42:40.605Z,35.58
2018-07-24T10:44:26.007Z,35.04
2018-07-24T10:45:26.042Z,34.16
2018-07-24T10:46:26.080Z,34.06
2018-07-24T10:47:26.115Z,33.82
2018-07-24T10:48:26.152Z,33.56
2018-07-24T10:49:40.847Z,34.56
2018-07-24T10:51:26.253Z,35.55
2018-07-24T10:52:26.297Z,36.07
2018-07-24T10:53:26.063Z,36.35
2018-07-24T10:54:26.096Z,36.73
2018-07-24T10:55:26.394Z,36.94
2018-07-24T10:56:26.163Z,37.18
2018-07-24T10:57:41.122Z,37.28
2018-07-24T10:59:41.189Z,36.85
2018-07-24T11:00:26.561Z,36.2
2018-07-24T11:01:26.597Z,35.6
2018-07-24T11:02:26.369Z,34.19
2018-07-24T11:03:26.664Z,33.59
2018-07-24T11:04:26.698Z,33.18
2018-07-24T11:05:41.141Z,32.48
2018-07-24T11:06:26.772Z,32.38
2018-07-24T11:07:26.804Z,32.08
2018-07-24T11:08:26.833Z,31.95
2018-07-24T11:09:26.865Z,32
2018-07-24T11:10:26.642Z,31.8
2018-07-24T11:11:26.678Z,31.73
2018-07-24T11:12:26.967Z,31.7
2018-07-24T11:13:27.004Z,32.13
2018-07-24T11:14:27.037Z,32.56
2018-07-24T11:15:27.069Z,32.72
2018-07-24T11:16:27.114Z,33
2018-07-24T11:17:27.135Z,33.12
2018-07-24T11:18:27.164Z,33.04
2018-07-24T11:19:27.212Z,33.11
2018-07-24T11:20:27.241Z,33.63
2018-07-24T11:21:41.934Z,33.9
2018-07-24T11:22:42.417Z,33.87
2018-07-24T11:23:27.334Z,33.88
2018-07-24T11:24:27.111Z,33.95
2018-07-24T11:25:27.140Z,34.22
2018-07-24T11:26:27.435Z,34.42
2018-07-24T11:27:27.607Z,34.44
2018-07-24T11:28:27.706Z,34.09
2018-07-24T11:29:27.540Z,33.65
2018-07-24T11:30:27.305Z,33.71
2018-07-24T11:31:27.597Z,33.82
2018-07-24T11:32:27.628Z,34.08
2018-07-24T11:33:27.967Z,34.32
2018-07-24T11:34:27.697Z,34.66
2018-07-24T11:35:27.867Z,33.97
2018-07-24T11:36:42.643Z,33.94
2018-07-24T11:37:42.463Z,33.9
2018-07-24T11:38:27.863Z,33.91
2018-07-24T11:39:27.882Z,34.3
2018-07-24T11:40:27.634Z,34.35
2018-07-24T11:41:42.594Z,32.78
2018-07-24T11:42:27.963Z,32.57
2018-07-24T11:43:42.704Z,32.47
2018-07-24T11:44:28.024Z,32.43
2018-07-24T11:45:27.803Z,32.62
2018-07-24T11:46:27.927Z,32.65
2018-07-24T11:47:27.914Z,32.55
2018-07-24T11:49:27.928Z,33.15
2018-07-24T11:50:28.222Z,33.22
2018-07-24T11:51:28.360Z,32.97
2018-07-24T11:52:42.949Z,32.75
2018-07-24T11:54:28.360Z,33.01
2018-07-24T11:55:28.123Z,33.22
2018-07-24T11:56:28.417Z,33.32
2018-07-24T11:57:28.450Z,33.22
2018-07-24T11:58:28.485Z,33.14
2018-07-24T11:59:28.291Z,32.96
2018-07-24T12:00:43.210Z,32.66
2018-07-24T12:01:28.586Z,32.55
2018-07-24T12:02:28.609Z,32.62
2018-07-24T12:03:28.747Z,32.78
2018-07-24T12:04:28.676Z,32.85
2018-07-24T12:05:28.450Z,32.85
2018-07-24T12:06:28.739Z,32.57
2018-07-24T12:07:28.515Z,32.33
2018-07-24T12:08:28.804Z,32.08
2018-07-24T12:09:28.838Z,32.01
2018-07-24T12:10:28.612Z,31.73
2018-07-24T12:11:28.401Z,31.76
2018-07-24T12:12:43.600Z,31.76
2018-07-24T12:14:28.492Z,32.43
2018-07-24T12:15:28.774Z,32.74
2018-07-24T12:16:28.804Z,32.43
2018-07-24T12:17:43.499Z,32.78
2018-07-24T12:18:29.125Z,33.04
2018-07-24T12:19:28.953Z,33.37
2018-07-24T12:20:28.935Z,33.03
2018-07-24T12:21:29.224Z,32.74
2018-07-24T12:23:29.285Z,32.75
2018-07-24T12:24:43.981Z,32.93
2018-07-24T12:25:29.091Z,32.85
2018-07-24T12:26:29.379Z,32.79
2018-07-24T12:27:29.416Z,32.65
2018-07-24T12:28:29.445Z,32.38
2018-07-24T12:29:29.483Z,32.32
2018-07-24T12:30:29.511Z,31.86
2018-07-24T12:31:29.542Z,31.78
2018-07-24T12:32:29.577Z,31.76
2018-07-24T12:33:44.270Z,31.72
2018-07-24T12:34:44.300Z,31.54
2018-07-24T12:35:29.410Z,31.56
2018-07-24T12:36:29.452Z,31.8
2018-07-24T12:37:29.483Z,31.75
2018-07-24T12:38:29.763Z,31.95
2018-07-24T12:39:29.552Z,32.35
2018-07-24T12:40:44.492Z,32.74
2018-07-24T12:41:29.869Z,32.82
2018-07-24T12:42:29.890Z,33.04
2018-07-24T12:43:29.745Z,32.93
2018-07-24T12:45:29.987Z,33.01
2018-07-24T12:46:30.020Z,32.81
2018-07-24T12:47:30.051Z,32.75
2018-07-24T12:48:29.867Z,33.14
2018-07-24T12:49:29.878Z,32.81
2018-07-24T12:50:44.551Z,32.94
2018-07-24T12:51:30.176Z,33.22
2018-07-24T12:52:29.818Z,33.12
2018-07-24T12:53:30.248Z,32.63
2018-07-24T12:54:30.020Z,32.29
2018-07-24T12:55:30.063Z,32.26
2018-07-24T12:56:44.997Z,32.48
2018-07-24T12:57:30.113Z,32.63
2018-07-24T12:58:30.153Z,32.25
2018-07-24T13:00:30.464Z,32.1
2018-07-24T13:01:30.493Z,31.81
2018-07-24T13:02:30.972Z,31.89
2018-07-24T13:03:30.324Z,31.99
2018-07-24T13:04:30.588Z,32.26
2018-07-24T13:05:30.647Z,32.6
2018-07-24T13:06:45.060Z,32.82
2018-07-24T13:07:30.819Z,32.89
2018-07-24T13:08:30.803Z,32.75
2018-07-24T13:09:30.746Z,32.45
2018-07-24T13:10:30.547Z,32.08
2018-07-24T13:11:30.833Z,32.04
2018-07-24T13:12:45.501Z,32.21
2018-07-24T13:13:30.870Z,32.18
2018-07-24T13:14:30.904Z,31.66
2018-07-24T13:16:30.998Z,31.1
2018-07-24T13:17:30.995Z,31.02
2018-07-24T13:18:31.026Z,31.34
2018-07-24T13:19:31.205Z,31.48
2018-07-24T13:20:31.088Z,31.53
2018-07-24T13:21:31.125Z,31.93
2018-07-24T13:22:45.823Z,32.25
2018-07-24T13:23:31.187Z,32.48
2018-07-24T13:24:31.237Z,32.6
2018-07-24T13:25:31.251Z,32.75
2018-07-24T13:26:31.355Z,32.84
2018-07-24T13:27:46.006Z,32.87
2018-07-24T13:28:31.338Z,33.03
2018-07-24T13:29:31.470Z,33.15
2018-07-24T13:30:31.201Z,33.37
2018-07-24T13:31:31.433Z,33.21
2018-07-24T13:32:46.131Z,33.21
2018-07-24T13:33:46.160Z,33.22
2018-07-24T13:34:31.525Z,33.31
2018-07-24T13:35:31.298Z,33.32
2018-07-24T13:36:31.327Z,32.6
2018-07-24T13:37:31.393Z,31.86
2018-07-24T13:38:31.392Z,31.86
2018-07-24T13:39:31.534Z,32.15
2018-07-24T13:40:31.713Z,32.32
2018-07-24T13:41:31.484Z,32.33
2018-07-24T13:42:31.773Z,32.62
2018-07-24T13:43:31.809Z,32.62